createdAt,value
2023-11-01T00:01:43.942Z,1.10
2023-11-01T00:04:11.526Z,1.20
2023-11-01T00:06:38.698Z,1.52
2023-11-01T00:09:05.910Z,1.23
2023-11-01T00:11:35.168Z,1.00
2023-11-01T00:14:03.779Z,1.35
2023-11-01T00:16:31.297Z,1.48
2023-11-01T00:18:59.095Z,1.35
2023-11-01T00:21:26.257Z,1.30
2023-11-01T00:23:53.437Z,1.27
2023-11-01T00:26:24.702Z,1.35
2023-11-01T00:28:53.829Z,1.20
2023-11-01T00:31:21.246Z,1.05
2023-11-01T00:33:48.465Z,1.08
2023-11-01T00:36:15.965Z,1.15
2023-11-01T00:38:43.519Z,1.30
2023-11-01T00:41:10.710Z,0.90
2023-11-01T00:43:38.097Z,0.70
2023-11-01T00:46:06.387Z,1.25
2023-11-01T00:48:33.519Z,0.88
2023-11-01T00:51:00.755Z,1.00
2023-11-01T00:53:28.329Z,0.90
2023-11-01T00:55:55.489Z,1.08
2023-11-01T00:58:23.891Z,1.40
2023-11-01T01:00:51.902Z,1.35
2023-11-01T01:03:19.230Z,1.10
2023-11-01T01:05:46.453Z,1.10
2023-11-01T01:08:13.931Z,0.82
2023-11-01T01:10:44.140Z,1.12
2023-11-01T01:13:11.329Z,1.27
2023-11-01T01:15:39.756Z,1.33
2023-11-01T01:18:07.480Z,1.60
2023-11-01T01:20:35.293Z,1.20
2023-11-01T01:23:04.109Z,1.90
2023-11-01T01:25:31.270Z,3.00
2023-11-01T01:27:58.429Z,1.80
2023-11-01T01:30:25.844Z,1.00
2023-11-01T01:32:53.019Z,0.82
2023-11-01T01:35:20.260Z,0.90
2023-11-01T01:37:47.713Z,0.73
2023-11-01T01:40:14.978Z,1.10
2023-11-01T01:42:42.687Z,1.20
2023-11-01T01:45:10.393Z,0.90
2023-11-01T01:47:37.835Z,1.00
2023-11-01T01:50:05.652Z,1.10
2023-11-01T01:52:33.204Z,1.95
2023-11-01T01:55:00.422Z,1.05
2023-11-01T01:57:29.774Z,1.17
2023-11-01T01:59:58.263Z,1.10
2023-11-01T02:02:25.743Z,1.02
2023-11-01T02:04:53.783Z,1.58
2023-11-01T02:07:21.033Z,1.42
2023-11-01T02:09:50.402Z,1.10
2023-11-01T02:12:18.288Z,1.02
2023-11-01T02:14:46.310Z,1.48
2023-11-01T02:17:13.506Z,1.10
2023-11-01T02:19:41.742Z,1.83
2023-11-01T02:22:09.081Z,1.50
2023-11-01T02:24:36.717Z,1.50
2023-11-01T02:27:05.161Z,1.20
2023-11-01T02:29:32.915Z,1.77
2023-11-01T02:32:04.503Z,1.77
2023-11-01T02:34:49.941Z,1.45
2023-11-01T02:37:17.525Z,1.40
2023-11-01T02:39:44.972Z,1.65
2023-11-01T02:42:12.127Z,1.80
2023-11-01T02:44:40.571Z,1.42
2023-11-01T02:47:07.988Z,1.75
2023-11-01T02:49:35.138Z,1.92
2023-11-01T02:52:02.237Z,1.55
2023-11-01T02:54:29.650Z,1.50
2023-11-01T02:57:00.772Z,1.67
2023-11-01T02:59:28.452Z,1.73
2023-11-01T03:01:57.251Z,1.50
2023-11-01T03:04:24.490Z,1.48
2023-11-01T03:06:51.660Z,1.40
2023-11-01T03:09:19.156Z,1.15
2023-11-01T03:11:46.301Z,1.50
2023-11-01T03:14:13.469Z,1.20
2023-11-01T03:16:42.129Z,1.40
2023-11-01T03:19:11.607Z,1.10
2023-11-01T03:21:41.824Z,1.10
2023-11-01T03:24:12.439Z,1.08
2023-11-01T03:26:41.345Z,1.20
2023-11-01T03:29:08.828Z,1.00
2023-11-01T03:31:36.478Z,0.90
2023-11-01T03:34:03.637Z,0.80
2023-11-01T03:36:31.415Z,0.90
2023-11-01T03:39:00.153Z,1.00
2023-11-01T03:41:27.309Z,1.15
2023-11-01T03:43:55.618Z,0.70
2023-11-01T03:46:23.416Z,1.00
2023-11-01T03:48:50.639Z,0.73
2023-11-01T03:51:19.016Z,0.73
2023-11-01T03:53:46.213Z,0.80
2023-11-01T03:56:14.108Z,0.90
2023-11-01T03:58:41.574Z,0.77
2023-11-01T04:01:09.274Z,0.93
2023-11-01T04:03:36.894Z,0.88
2023-11-01T04:06:04.414Z,1.27
2023-11-01T04:08:31.609Z,1.00
2023-11-01T04:10:59.566Z,0.93
2023-11-01T04:13:26.793Z,0.88
2023-11-01T04:15:55.238Z,0.62
2023-11-01T04:18:22.757Z,0.90
2023-11-01T04:20:49.961Z,0.68
2023-11-01T04:23:17.672Z,1.00
2023-11-01T04:25:45.288Z,0.60
2023-11-01T04:28:12.423Z,0.68
2023-11-01T04:30:40.281Z,0.85
2023-11-01T04:33:08.029Z,1.00
2023-11-01T04:35:36.119Z,1.12
2023-11-01T04:38:03.714Z,0.98
2023-11-01T04:40:33.065Z,1.20
2023-11-01T04:43:00.238Z,1.10
2023-11-01T04:45:29.215Z,1.17
2023-11-01T04:47:56.725Z,1.12
2023-11-01T04:50:24.165Z,0.82
2023-11-01T04:52:51.843Z,0.93
2023-11-01T04:55:19.266Z,1.33
2023-11-01T04:57:46.413Z,2.67
2023-11-01T05:00:17.311Z,2.67
2023-11-01T05:02:48.863Z,4.53
2023-11-01T05:05:16.246Z,2.35
2023-11-01T05:07:43.953Z,3.72
2023-11-01T05:10:14.131Z,2.83
2023-11-01T05:12:42.215Z,2.08
2023-11-01T05:15:10.084Z,2.28
2023-11-01T05:17:37.573Z,1.90
2023-11-01T05:20:05.287Z,2.00
2023-11-01T05:22:33.313Z,1.40
2023-11-01T05:25:01.382Z,1.45
2023-11-01T05:27:28.688Z,0.90
2023-11-01T05:29:56.365Z,1.00
2023-11-01T05:32:23.788Z,1.20
2023-11-01T05:34:50.919Z,0.98
2023-11-01T05:37:20.955Z,1.02
2023-11-01T05:39:48.347Z,1.00
2023-11-01T05:42:16.047Z,1.08
2023-11-01T05:44:43.773Z,0.90
2023-11-01T05:47:18.783Z,0.95
2023-11-01T05:49:46.553Z,1.50
2023-11-01T05:52:23.740Z,1.65
2023-11-01T05:54:51.416Z,8.20
2023-11-01T05:57:18.819Z,6.22
2023-11-01T05:59:48.208Z,4.05
2023-11-01T06:02:15.479Z,3.08
2023-11-01T06:04:42.975Z,2.30
2023-11-01T06:07:10.067Z,1.35
2023-11-01T06:09:37.197Z,0.85
2023-11-01T06:12:06.885Z,1.02
2023-11-01T06:14:34.127Z,0.85
2023-11-01T06:17:03.537Z,1.20
2023-11-01T06:19:33.002Z,1.30
2023-11-01T06:22:00.279Z,1.80
2023-11-01T06:24:27.970Z,1.20
2023-11-01T06:26:58.535Z,1.60
2023-11-01T06:29:28.617Z,1.48
2023-11-01T06:31:56.962Z,1.30
2023-11-01T06:34:24.241Z,1.45
2023-11-01T06:36:55.905Z,1.00
2023-11-01T06:39:25.060Z,1.30
2023-11-01T06:41:54.694Z,0.98
2023-11-01T06:44:21.880Z,1.00
2023-11-01T06:46:51.713Z,0.80
2023-11-01T06:49:18.883Z,1.10
2023-11-01T06:51:47.469Z,1.00
2023-11-01T06:54:15.003Z,0.85
2023-11-01T06:56:46.406Z,2.33
2023-11-01T06:59:14.604Z,1.40
2023-11-01T07:01:44.866Z,1.85
2023-11-01T07:04:15.726Z,1.57
2023-11-01T07:06:43.964Z,0.90
2023-11-01T07:09:12.022Z,1.10
2023-11-01T07:11:41.125Z,1.10
2023-11-01T07:14:10.782Z,1.08
2023-11-01T07:16:42.477Z,1.00
2023-11-01T07:19:10.615Z,1.00
2023-11-01T07:21:42.237Z,0.88
2023-11-01T07:24:09.800Z,1.55
2023-11-01T07:26:38.113Z,0.65
2023-11-01T07:29:12.844Z,1.10
2023-11-01T07:31:41.430Z,0.95
2023-11-01T07:34:09.568Z,0.93
2023-11-01T07:36:44.089Z,0.70
2023-11-01T07:39:11.691Z,1.02
2023-11-01T07:41:41.144Z,0.60
2023-11-01T07:44:09.558Z,1.10
2023-11-01T07:46:38.437Z,0.80
2023-11-01T07:49:05.578Z,0.90
2023-11-01T07:51:36.745Z,0.70
2023-11-01T07:54:04.535Z,0.75
2023-11-01T07:56:34.862Z,0.70
2023-11-01T07:59:02.091Z,1.08
2023-11-01T08:01:37.341Z,0.90
2023-11-01T08:04:05.162Z,1.10
2023-11-01T08:06:32.388Z,1.00
2023-11-01T08:09:00.210Z,1.67
2023-11-01T08:11:29.503Z,1.90
2023-11-01T08:13:57.621Z,2.03
2023-11-01T08:16:28.317Z,2.00
2023-11-01T08:19:00.542Z,1.77
2023-11-01T08:21:27.740Z,1.40
2023-11-01T08:23:54.947Z,1.35
2023-11-01T08:26:24.374Z,1.10
2023-11-01T08:28:51.556Z,1.10
2023-11-01T08:31:20.375Z,0.88
2023-11-01T08:33:47.911Z,1.30
2023-11-01T08:36:15.325Z,1.00
2023-11-01T08:38:43.839Z,1.60
2023-11-01T08:41:15.930Z,1.15
2023-11-01T08:46:13.988Z,1.37
2023-11-01T08:48:41.777Z,0.90
2023-11-01T08:51:11.720Z,1.10
2023-11-01T08:53:40.002Z,1.20
2023-11-01T08:56:09.026Z,2.53
2023-11-01T08:58:36.218Z,1.65
2023-11-01T09:01:07.450Z,1.02
2023-11-01T09:03:35.283Z,1.20
2023-11-01T09:06:04.606Z,1.30
2023-11-01T09:08:32.070Z,1.00
2023-11-01T09:11:02.403Z,1.20
2023-11-01T09:13:29.540Z,1.33
2023-11-01T09:15:58.377Z,1.15
2023-11-01T09:18:26.584Z,1.15
2023-11-01T09:20:53.923Z,0.98
2023-11-01T09:23:21.456Z,0.93
2023-11-01T09:25:49.111Z,0.75
2023-11-01T09:28:16.404Z,0.98
2023-11-01T09:30:47.407Z,0.88
2023-11-01T09:33:16.071Z,1.00
2023-11-01T09:35:43.637Z,0.93
2023-11-01T09:38:10.813Z,1.45
2023-11-01T09:40:38.012Z,1.40
2023-11-01T09:43:08.521Z,0.90
2023-11-01T09:45:37.729Z,0.50
2023-11-01T09:48:07.050Z,0.70
2023-11-01T09:50:36.693Z,0.82
2023-11-01T09:53:04.123Z,0.93
2023-11-01T09:55:31.228Z,0.82
2023-11-01T09:57:59.710Z,1.02
2023-11-01T10:00:27.273Z,0.90
2023-11-01T10:02:55.113Z,0.80
2023-11-01T10:05:22.544Z,1.12
2023-11-01T10:07:49.667Z,0.90
2023-11-01T10:10:18.146Z,1.70
2023-11-01T10:12:46.176Z,1.27
2023-11-01T10:15:24.071Z,1.75
2023-11-01T10:17:55.386Z,1.17
2023-11-01T10:20:23.869Z,0.90
2023-11-01T10:22:51.374Z,1.62
2023-11-01T10:25:20.550Z,0.90
2023-11-01T10:27:53.599Z,0.70
2023-11-01T10:30:28.208Z,0.65
2023-11-01T10:32:59.614Z,0.60
2023-11-01T10:35:27.813Z,1.00
2023-11-01T10:38:00.069Z,0.70
2023-11-01T10:40:30.287Z,0.60
2023-11-01T10:42:59.892Z,0.52
2023-11-01T10:45:27.443Z,0.60
2023-11-01T10:47:55.254Z,0.80
2023-11-01T10:50:23.919Z,0.82
2023-11-01T10:52:51.958Z,0.30
2023-11-01T10:55:41.657Z,0.35
2023-11-01T10:58:15.545Z,0.30
2023-11-01T11:00:49.938Z,1.05
2023-11-01T11:03:32.708Z,0.77
2023-11-01T11:06:16.280Z,0.37
2023-11-01T11:09:24.315Z,0.73
2023-11-01T11:12:21.661Z,0.40
2023-11-01T11:14:52.673Z,0.50
2023-11-01T11:17:21.731Z,1.12
2023-11-01T11:20:12.480Z,0.40
2023-11-01T11:23:04.277Z,0.40
2023-11-01T11:25:38.298Z,0.75
2023-11-01T11:28:20.080Z,1.17
2023-11-01T11:31:17.020Z,0.50
2023-11-01T11:33:48.467Z,0.93
2023-11-01T11:36:18.053Z,0.65
2023-11-01T11:38:50.843Z,0.35
2023-11-01T11:41:23.978Z,0.60
2023-11-01T11:46:43.267Z,0.40
2023-11-01T11:51:59.474Z,0.45
2023-11-01T11:54:37.018Z,0.65
2023-11-01T11:57:11.517Z,0.50
2023-11-01T11:59:40.877Z,0.60
2023-11-01T12:02:19.312Z,0.50
2023-11-01T12:04:48.438Z,0.60
2023-11-01T12:07:22.531Z,1.20
2023-11-01T12:09:54.108Z,0.80
2023-11-01T12:12:22.447Z,0.98
2023-11-01T12:15:02.986Z,0.50
2023-11-01T12:17:32.562Z,0.88
2023-11-01T12:20:00.167Z,0.60
2023-11-01T12:22:27.363Z,0.47
2023-11-01T12:24:57.093Z,1.55
2023-11-01T12:27:32.205Z,0.50
2023-11-01T12:30:01.284Z,0.52
2023-11-01T12:32:34.773Z,0.40
2023-11-01T12:35:06.888Z,0.70
2023-11-01T12:37:36.433Z,0.70
2023-11-01T12:40:20.132Z,0.65
2023-11-01T12:42:51.015Z,1.27
2023-11-01T12:45:21.064Z,0.95
2023-11-01T12:47:53.809Z,1.00
2023-11-01T12:50:31.158Z,1.27
2023-11-01T12:53:00.975Z,0.82
2023-11-01T12:55:29.168Z,1.05
2023-11-01T12:57:58.069Z,1.27
2023-11-01T13:00:26.708Z,0.90
2023-11-01T13:02:54.388Z,1.33
2023-11-01T13:05:23.036Z,1.05
2023-11-01T13:07:52.315Z,1.40
2023-11-01T13:10:19.612Z,0.45
2023-11-01T13:12:49.303Z,0.68
2023-11-01T13:15:17.842Z,0.80
2023-11-01T13:17:45.608Z,0.50
2023-11-01T13:20:14.097Z,0.50
2023-11-01T13:22:41.905Z,1.80
2023-11-01T13:25:09.241Z,1.27
2023-11-01T13:27:37.333Z,2.25
2023-11-01T13:30:07.375Z,0.68
2023-11-01T13:32:35.055Z,0.80
2023-11-01T13:35:02.895Z,0.73
2023-11-01T13:37:33.132Z,1.00
2023-11-01T13:40:00.752Z,0.90
2023-11-01T13:42:28.492Z,0.60
2023-11-01T13:44:57.831Z,0.77
2023-11-01T13:47:26.554Z,1.10
2023-11-01T13:49:56.416Z,1.00
2023-11-01T13:52:24.574Z,1.12
2023-11-01T13:54:52.216Z,0.93
2023-11-01T13:57:22.134Z,1.45
2023-11-01T13:59:49.839Z,2.42
2023-11-01T14:02:17.614Z,0.80
2023-11-01T14:04:45.928Z,2.28
2023-11-01T14:07:13.162Z,1.50
2023-11-01T14:09:40.747Z,0.80
2023-11-01T14:12:09.415Z,4.87
2023-11-01T14:14:38.186Z,6.12
2023-11-01T14:17:06.268Z,4.00
2023-11-01T14:19:34.541Z,4.10
2023-11-01T14:22:01.737Z,5.37
2023-11-01T14:24:29.483Z,2.45
2023-11-01T14:26:58.237Z,2.15
2023-11-01T14:29:26.959Z,2.12
2023-11-01T14:31:55.199Z,1.75
2023-11-01T14:34:22.800Z,1.50
2023-11-01T14:36:55.970Z,3.65
2023-11-01T14:39:24.070Z,3.90
2023-11-01T14:41:51.694Z,2.67
2023-11-01T14:44:19.341Z,4.18
2023-11-01T14:46:47.349Z,1.95
2023-11-01T14:49:17.357Z,1.80
2023-11-01T14:51:45.309Z,3.58
2023-11-01T14:54:16.273Z,3.92
2023-11-01T14:56:45.339Z,3.67
2023-11-01T14:59:14.117Z,5.18
2023-11-01T15:01:51.957Z,3.08
2023-11-01T15:04:20.042Z,4.62
2023-11-01T15:06:50.609Z,4.72
2023-11-01T15:09:21.033Z,4.40
2023-11-01T15:11:50.020Z,16.20
2023-11-01T15:14:17.592Z,26.12
2023-11-01T15:16:45.236Z,12.60
2023-11-01T15:19:12.984Z,25.25
2023-11-01T15:21:45.931Z,12.27
2023-11-01T15:24:14.935Z,15.15
2023-11-01T15:26:46.537Z,16.98
2023-11-01T15:29:14.097Z,16.20
2023-11-01T15:31:42.112Z,20.00
2023-11-01T15:34:09.631Z,35.80
2023-11-01T15:36:38.014Z,27.40
2023-11-01T15:39:05.788Z,50.10
2023-11-01T15:41:33.036Z,30.88
2023-11-01T15:44:00.620Z,12.75
2023-11-01T15:46:31.352Z,9.13
2023-11-01T15:48:58.613Z,13.70
2023-11-01T15:51:27.609Z,9.32
2023-11-01T15:53:55.659Z,9.38
2023-11-01T15:56:22.921Z,7.18
2023-11-01T15:58:51.155Z,7.75
2023-11-01T16:01:20.854Z,14.50
2023-11-01T16:03:49.294Z,11.52
2023-11-01T16:06:19.278Z,12.55
2023-11-01T16:08:49.209Z,10.13
2023-11-01T16:11:24.611Z,6.10
2023-11-01T16:13:56.285Z,14.05
2023-11-01T16:16:23.980Z,22.10
2023-11-01T16:18:51.659Z,12.25
2023-11-01T16:21:18.839Z,8.27
2023-11-01T16:23:46.798Z,8.50
2023-11-01T16:26:16.208Z,11.82
2023-11-01T16:28:43.534Z,12.13
2023-11-01T16:31:14.182Z,14.75
2023-11-01T16:33:44.716Z,11.90
2023-11-01T16:36:13.165Z,11.52
2023-11-01T16:38:40.424Z,11.18
2023-11-01T16:41:09.722Z,10.98
2023-11-01T16:43:42.624Z,9.50
2023-11-01T16:46:10.309Z,9.35
2023-11-01T16:48:43.227Z,7.78
2023-11-01T16:51:12.356Z,7.43
2023-11-01T16:53:41.070Z,9.05
2023-11-01T16:56:08.857Z,8.60
2023-11-01T16:58:37.265Z,10.82
2023-11-01T17:01:12.981Z,9.52
2023-11-01T17:03:42.918Z,10.05
2023-11-01T17:06:11.562Z,8.15
2023-11-01T17:08:38.812Z,5.65
2023-11-01T17:11:05.958Z,6.75
2023-11-01T17:13:36.512Z,6.00
2023-11-01T17:16:04.101Z,7.43
2023-11-01T17:18:31.476Z,7.22
2023-11-01T17:21:01.348Z,12.18
2023-11-01T17:23:28.626Z,11.93
2023-11-01T17:26:00.380Z,9.80
2023-11-01T17:28:35.865Z,12.52
2023-11-01T17:31:11.397Z,13.57
2023-11-01T17:33:41.212Z,14.52
2023-11-01T17:36:21.172Z,24.10
2023-11-01T17:38:51.615Z,13.27
2023-11-01T17:41:41.713Z,9.27
2023-11-01T17:44:12.458Z,7.20
2023-11-01T17:46:46.975Z,6.62
2023-11-01T17:49:45.399Z,6.50
2023-11-01T17:52:27.029Z,5.20
2023-11-01T17:54:57.627Z,7.60
2023-11-01T17:57:25.023Z,5.82
2023-11-01T17:59:58.004Z,5.20
2023-11-01T18:02:34.041Z,5.45
2023-11-01T18:05:01.732Z,7.75
2023-11-01T18:07:29.015Z,14.95
2023-11-01T18:09:58.225Z,14.13
2023-11-01T18:12:30.482Z,14.35
2023-11-01T18:14:58.185Z,16.50
2023-11-01T18:17:27.685Z,15.55
2023-11-01T18:19:56.541Z,14.50
2023-11-01T18:22:42.480Z,8.75
2023-11-01T18:25:45.757Z,12.07
2023-11-01T18:28:12.883Z,11.88
2023-11-01T18:30:45.672Z,10.73
2023-11-01T18:33:19.997Z,11.65
2023-11-01T18:35:47.487Z,21.10
2023-11-01T18:38:47.880Z,34.75
2023-11-01T18:41:15.430Z,28.25
2023-11-01T18:43:43.690Z,20.30
2023-11-01T18:46:13.376Z,16.27
2023-11-01T18:48:47.359Z,11.65
2023-11-01T18:51:42.005Z,11.45
2023-11-01T18:54:17.415Z,8.25
2023-11-01T18:56:45.065Z,9.40
2023-11-01T18:59:13.497Z,8.52
2023-11-01T19:01:42.154Z,8.13
2023-11-01T19:04:14.411Z,5.32
2023-11-01T19:06:44.488Z,4.40
2023-11-01T19:09:15.796Z,5.35
2023-11-01T19:11:43.980Z,6.60
2023-11-01T19:14:14.809Z,5.82
2023-11-01T19:16:43.913Z,6.00
2023-11-01T19:19:20.155Z,7.70
2023-11-01T19:21:50.298Z,6.40
2023-11-01T19:24:29.326Z,5.47
2023-11-01T19:27:09.509Z,5.03
2023-11-01T19:29:43.382Z,6.37
2023-11-01T19:32:11.210Z,7.97
2023-11-01T19:34:41.104Z,10.90
2023-11-01T19:37:09.105Z,10.60
2023-11-01T19:39:42.037Z,9.20
2023-11-01T19:42:09.992Z,8.68
2023-11-01T19:44:40.561Z,7.75
2023-11-01T19:47:11.033Z,9.88
2023-11-01T19:49:39.458Z,11.30
2023-11-01T19:52:10.227Z,7.43
2023-11-01T19:54:39.214Z,7.62
2023-11-01T19:57:09.900Z,11.18
2023-11-01T19:59:41.584Z,10.13
2023-11-01T20:02:10.749Z,8.38
2023-11-01T20:04:41.816Z,7.05
2023-11-01T20:07:14.907Z,8.38
2023-11-01T20:09:43.837Z,10.23
2023-11-01T20:12:14.485Z,13.93
2023-11-01T20:14:44.656Z,22.52
2023-11-01T20:17:17.154Z,15.80
2023-11-01T20:19:44.848Z,14.68
2023-11-01T20:22:14.041Z,10.50
2023-11-01T20:24:43.303Z,9.63
2023-11-01T20:27:11.053Z,5.68
2023-11-01T20:29:42.125Z,4.60
2023-11-01T20:32:09.786Z,4.43
2023-11-01T20:34:37.555Z,9.95
2023-11-01T20:37:11.679Z,16.00
2023-11-01T20:39:56.717Z,14.50
2023-11-01T20:42:27.751Z,11.88
2023-11-01T20:44:59.287Z,9.00
2023-11-01T20:47:27.255Z,8.35
2023-11-01T20:50:03.256Z,9.13
2023-11-01T20:52:32.119Z,7.62
2023-11-01T20:55:02.502Z,9.27
2023-11-01T20:57:33.485Z,10.85
2023-11-01T21:00:01.805Z,9.60
2023-11-01T21:02:30.230Z,9.43
2023-11-01T21:04:58.872Z,10.93
2023-11-01T21:07:30.914Z,10.35
2023-11-01T21:10:04.241Z,8.77
2023-11-01T21:12:32.641Z,9.38
2023-11-01T21:15:08.832Z,18.00
2023-11-01T21:17:37.522Z,14.65
2023-11-01T21:20:10.698Z,14.25
2023-11-01T21:22:50.004Z,10.52
2023-11-01T21:25:18.481Z,13.05
2023-11-01T21:27:47.549Z,12.00
2023-11-01T21:30:16.273Z,11.40
2023-11-01T21:32:44.119Z,8.57
2023-11-01T21:35:12.381Z,8.27
2023-11-01T21:37:40.599Z,10.57
2023-11-01T21:40:08.643Z,8.80
2023-11-01T21:42:37.103Z,9.30
2023-11-01T21:45:20.207Z,8.30
2023-11-01T21:48:07.877Z,6.28
2023-11-01T21:50:50.237Z,6.57
2023-11-01T21:53:18.364Z,7.40
2023-11-01T21:55:56.393Z,6.57
2023-11-01T21:58:26.547Z,7.05
2023-11-01T22:01:07.306Z,6.05
2023-11-01T22:03:42.721Z,6.25
2023-11-01T22:06:19.610Z,6.10
2023-11-01T22:09:12.466Z,5.90
2023-11-01T22:11:44.036Z,5.87
2023-11-01T22:14:31.235Z,7.07
2023-11-01T22:17:03.168Z,5.70
2023-11-01T22:19:42.349Z,7.30
2023-11-01T22:22:34.734Z,6.60
2023-11-01T22:25:08.332Z,9.75
2023-11-01T22:27:39.622Z,6.45
2023-11-01T22:30:07.800Z,15.80
2023-11-01T22:32:34.960Z,15.95
2023-11-01T22:35:02.148Z,21.67
2023-11-01T22:37:29.723Z,16.45
2023-11-01T22:39:57.304Z,21.25
2023-11-01T22:42:32.039Z,28.48
2023-11-01T22:45:02.398Z,27.17
2023-11-01T22:47:31.193Z,21.85
2023-11-01T22:49:58.908Z,9.73
2023-11-01T22:52:27.292Z,10.30
2023-11-01T22:54:55.811Z,8.75
2023-11-01T22:57:22.986Z,14.57
2023-11-01T22:59:51.593Z,12.77
2023-11-01T23:02:18.785Z,14.18
2023-11-01T23:04:45.909Z,13.25
2023-11-01T23:07:15.504Z,13.32
2023-11-01T23:09:42.659Z,9.00
2023-11-01T23:12:12.388Z,7.00
2023-11-01T23:14:39.891Z,5.30
2023-11-01T23:17:11.610Z,4.65
2023-11-01T23:19:39.235Z,5.75
2023-11-01T23:22:10.295Z,5.20
2023-11-01T23:24:39.402Z,6.32
2023-11-01T23:27:07.015Z,11.88
2023-11-01T23:29:37.414Z,6.20
2023-11-01T23:32:11.853Z,5.82
2023-11-01T23:34:49.407Z,7.12
2023-11-01T23:37:38.076Z,8.05
2023-11-01T23:40:10.046Z,6.28
2023-11-01T23:42:38.219Z,6.30
2023-11-01T23:45:39.552Z,5.37
2023-11-01T23:48:07.547Z,6.20
2023-11-01T23:50:36.995Z,4.72
2023-11-01T23:53:05.735Z,7.90
2023-11-01T23:55:33.484Z,11.02
2023-11-01T23:58:01.579Z,13.73
